Time;durP1;ratioP1;P1;durP2;ratioP2;P2;SDS_P1;SDS_P2;PMS_P1;PMS_P2;Temp;Humidity;BMP_temperature;BMP_pressure;BME280_temperature;BME280_humidity;BME280_pressure;Samples;Min_cycle;Max_cycle;Signal;HPM_P1;HPM_P2
2024/02/28 00:10:15;;;;;;;24.7;15.7;;;;;;;11.42;74.95;98623.333333333;;;;
2024/02/28 00:21:15;;;;;;;24.7;15.7;;;;;;;11.42;75.07;98628.333333333;;;;
2024/02/28 00:31:15;;;;;;;24.7;15.7;;;;;;;11.34;75.29;98628.333333333;;;;
2024/02/28 00:41:15;;;;;;;19.2;14.8;;;;;;;11.2;76.19;98628.333333333;;;;
2024/02/28 00:52:15;;;;;;;19.2;14.8;;;;;;;10.92;77.84;98625;;;;
2024/02/28 01:02:15;;;;;;;19.2;14.8;;;;;;;10.81;77.76;98638.333333333;;;;
2024/02/28 01:12:16;;;;;;;20.5;14.9;;;;;;;10.47;79.04;98645;;;;
2024/02/28 01:22:16;;;;;;;20.5;14.9;;;;;;;10.4;78.78;98645;;;;
2024/02/28 01:32:16;;;;;;;20.5;14.9;;;;;;;10.39;79.22;98640;;;;
2024/02/28 01:43:16;;;;;;;23.2;13.7;;;;;;;10.47;78.79;98638.333333333;;;;
2024/02/28 01:53:16;;;;;;;23.2;13.7;;;;;;;10.41;79.36;98626.666666667;;;;
2024/02/28 02:04:16;;;;;;;23.2;13.7;;;;;;;10.28;80.49;98630;;;;
2024/02/28 02:14:16;;;;;;;25.8;17.3;;;;;;;10.08;82.44;98631.666666667;;;;
2024/02/28 02:24:16;;;;;;;25.8;17.3;;;;;;;10.16;81.67;98635;;;;
2024/02/28 02:35:16;;;;;;;25.8;17.3;;;;;;;10.1;81.75;98630;;;;
2024/02/28 02:46:16;;;;;;;32.3;22.5;;;;;;;10.04;81.42;98626.666666667;;;;
2024/02/28 02:57:15;;;;;;;32.3;22.5;;;;;;;9.95;82.06;98628.333333333;;;;
2024/02/28 03:08:15;;;;;;;32.3;22.5;;;;;;;9.91;82.51;98635;;;;
2024/02/28 03:19:16;;;;;;;30.7;19.4;;;;;;;9.85;82.72;98638.333333333;;;;
2024/02/28 03:29:16;;;;;;;30.7;19.4;;;;;;;9.95;81.97;98641.666666667;;;;
2024/02/28 03:40:15;;;;;;;25.1;15.9;;;;;;;9.93;81.8;98648.333333333;;;;
2024/02/28 03:50:16;;;;;;;25.1;15.9;;;;;;;10.04;81.8;98653.333333333;;;;
2024/02/28 04:01:16;;;;;;;25.1;15.9;;;;;;;9.97;83.03;98666.666666667;;;;
2024/02/28 04:12:16;;;;;;;25.4;18.2;;;;;;;10.02;82.82;98671.666666667;;;;
2024/02/28 04:22:16;;;;;;;25.4;18.2;;;;;;;10.07;82.66;98665;;;;
2024/02/28 04:32:16;;;;;;;25.4;18.2;;;;;;;9.85;83.57;98663.333333333;;;;
2024/02/28 04:43:16;;;;;;;28.8;18.5;;;;;;;9.85;83.49;98663.333333333;;;;
2024/02/28 04:53:16;;;;;;;28.8;18.5;;;;;;;9.89;83.54;98661.666666667;;;;
2024/02/28 05:04:16;;;;;;;28.8;18.5;;;;;;;9.99;83.16;98671.666666667;;;;
2024/02/28 05:14:16;;;;;;;33.7;21;;;;;;;9.84;83.68;98681.666666667;;;;
2024/02/28 05:24:16;;;;;;;33.7;21;;;;;;;9.88;83.38;98695;;;;
2024/02/28 05:34:16;;;;;;;33.7;21;;;;;;;9.92;83.5;98701.666666667;;;;
2024/02/28 05:45:16;;;;;;;32.1;19.2;;;;;;;9.98;83.4;98708.333333333;;;;
2024/02/28 05:56:19;;;;;;;32.1;19.2;;;;;;;10.07;83.36;98721.666666667;;;;
2024/02/28 06:07:16;;;;;;;32.1;19.2;;;;;;;10.12;82.66;98723.333333333;;;;
2024/02/28 06:17:16;;;;;;;27.6;17.1;;;;;;;9.98;83.14;98731.666666667;;;;
2024/02/28 06:28:16;;;;;;;27.6;17.1;;;;;;;10.14;83.12;98741.666666667;;;;
2024/02/28 06:39:16;;;;;;;31.4;19.4;;;;;;;10.25;83.88;98751.666666667;;;;
2024/02/28 06:49:16;;;;;;;31.4;19.4;;;;;;;10.44;83.62;98761.666666667;;;;
2024/02/28 07:00:16;;;;;;;31.4;19.4;;;;;;;10.6;83.6;98775;;;;
2024/02/28 07:10:16;;;;;;;29.8;21.8;;;;;;;10.87;83.54;98805;;;;
2024/02/28 07:21:16;;;;;;;29.8;21.8;;;;;;;11.26;82.87;98797.5;;;;
2024/02/28 07:32:16;;;;;;;29.8;21.8;;;;;;;11.56;82.42;98795;;;;
2024/02/28 07:43:16;;;;;;;37.7;28.1;;;;;;;11.72;80.82;98805;;;;
2024/02/28 07:53:16;;;;;;;37.7;28.1;;;;;;;12.06;79.76;98807.5;;;;
2024/02/28 08:04:16;;;;;;;37.7;28.1;;;;;;;12.42;79.32;98805;;;;
2024/02/28 08:15:16;;;;;;;42.3;34.2;;;;;;;12.56;77.91;98802.5;;;;
2024/02/28 08:26:16;;;;;;;42.3;34.2;;;;;;;12.45;77.73;98817.5;;;;
2024/02/28 08:36:16;;;;;;;42.3;34.2;;;;;;;12.61;77.71;98825;;;;
2024/02/28 08:47:16;;;;;;;37.9;32.2;;;;;;;12.81;77.04;98827.5;;;;
2024/02/28 08:57:16;;;;;;;37.9;32.2;;;;;;;12.84;75.96;98830;;;;
2024/02/28 09:08:16;;;;;;;37.9;32.2;;;;;;;12.97;76.14;98835;;;;
2024/02/28 09:19:17;;;;;;;37.5;29.7;;;;;;;12.94;76.95;98840;;;;
2024/02/28 09:30:16;;;;;;;37.5;29.7;;;;;;;12.99;77.15;98835;;;;
2024/02/28 09:40:16;;;;;;;35;30.1;;;;;;;13.41;76.65;98842.5;;;;
2024/02/28 09:50:16;;;;;;;35;30.1;;;;;;;13.74;75.73;98840;;;;
2024/02/28 10:01:17;;;;;;;35;30.1;;;;;;;14.01;74.64;98847.5;;;;
2024/02/28 10:11:16;;;;;;;33;27.9;;;;;;;14.38;74.84;98860;;;;
2024/02/28 10:22:16;;;;;;;33;27.9;;;;;;;14.63;72.61;98870;;;;
2024/02/28 10:32:16;;;;;;;33;27.9;;;;;;;14.66;72.91;98865;;;;
2024/02/28 10:42:16;;;;;;;34.6;29.9;;;;;;;14.74;72.19;98865;;;;
2024/02/28 10:53:16;;;;;;;34.6;29.9;;;;;;;14.89;71.99;98865;;;;
2024/02/28 11:03:16;;;;;;;34.6;29.9;;;;;;;15.2;71.28;98867.5;;;;
2024/02/28 11:14:16;;;;;;;37.8;31.2;;;;;;;15.34;71.13;98867.5;;;;
2024/02/28 11:24:16;;;;;;;37.8;31.2;;;;;;;15.61;69.88;98865;;;;
2024/02/28 11:35:16;;;;;;;37.8;31.2;;;;;;;15.7;69.51;98865;;;;
2024/02/28 11:46:16;;;;;;;38.3;29.7;;;;;;;16.01;68.36;98840;;;;
2024/02/28 11:57:17;;;;;;;38.3;29.7;;;;;;;16.1;67.78;98840;;;;
2024/02/28 12:08:16;;;;;;;38.3;29.7;;;;;;;16.12;67.13;98834;;;;
2024/02/28 12:19:16;;;;;;;66.3;59;;;;;;;16.08;66.94;98840;;;;
2024/02/28 12:30:16;;;;;;;66.3;59;;;;;;;16.05;66.49;98840;;;;
2024/02/28 12:40:16;;;;;;;45.2;39.4;;;;;;;15.96;64.36;98840;;;;
2024/02/28 12:51:17;;;;;;;45.2;39.4;;;;;;;15.53;64.83;98846;;;;
2024/02/28 13:02:17;;;;;;;45.2;39.4;;;;;;;15.62;67.21;98850;;;;
2024/02/28 13:12:17;;;;;;;31.3;23;;;;;;;15.53;66.97;98858;;;;
2024/02/28 13:23:16;;;;;;;31.3;23;;;;;;;15.48;65.62;98860;;;;
2024/02/28 13:33:17;;;;;;;31.3;23;;;;;;;15.26;66.44;98864;;;;
2024/02/28 13:43:16;;;;;;;25.6;19.6;;;;;;;15.19;67.07;98872;;;;
2024/02/28 13:54:16;;;;;;;25.6;19.6;;;;;;;15.06;68.04;98876;;;;
2024/02/28 14:04:16;;;;;;;25.6;19.6;;;;;;;14.88;69.78;98870;;;;
2024/02/28 14:14:16;;;;;;;24.7;21;;;;;;;14.91;69.85;98888;;;;
2024/02/28 14:25:16;;;;;;;24.7;21;;;;;;;14.62;69.94;98896;;;;
2024/02/28 14:35:16;;;;;;;24.7;21;;;;;;;14.24;71.26;98898;;;;
2024/02/28 14:46:18;;;;;;;37.9;32.9;;;;;;;13.77;73.99;98914;;;;
2024/02/28 14:56:16;;;;;;;37.9;32.9;;;;;;;13.62;74.84;98922;;;;
2024/02/28 15:06:16;;;;;;;37.9;32.9;;;;;;;13.47;75.93;98936;;;;
2024/02/28 15:17:17;;;;;;;44.4;36.9;;;;;;;13.21;77.63;98940;;;;
2024/02/28 15:27:16;;;;;;;44.4;36.9;;;;;;;13.12;78.36;98931.666666667;;;;
2024/02/28 15:38:16;;;;;;;47.1;40.1;;;;;;;12.88;80.14;98940;;;;
2024/02/28 15:49:17;;;;;;;47.1;40.1;;;;;;;12.57;81.85;98945;;;;
2024/02/28 15:59:16;;;;;;;47.1;40.1;;;;;;;12.53;81.85;98955;;;;
2024/02/28 16:10:16;;;;;;;46.2;41.4;;;;;;;12.6;81.13;98961.666666667;;;;
2024/02/28 16:20:17;;;;;;;46.2;41.4;;;;;;;12.4;82.28;98985;;;;
2024/02/28 16:31:16;;;;;;;46.2;41.4;;;;;;;12.1;81.87;98988.333333333;;;;
2024/02/28 16:41:16;;;;;;;65.9;44.9;;;;;;;11.92;82.53;98996.666666667;;;;
2024/02/28 16:52:17;;;;;;;65.9;44.9;;;;;;;11.5;84.85;99013.333333333;;;;
2024/02/28 17:02:16;;;;;;;65.9;44.9;;;;;;;11.43;85.1;99026.666666667;;;;
2024/02/28 17:13:16;;;;;;;103.7;55.6;;;;;;;11.36;85.38;99040;;;;
2024/02/28 17:23:16;;;;;;;103.7;55.6;;;;;;;11.31;85.23;99038.333333333;;;;
2024/02/28 17:34:16;;;;;;;103.7;55.6;;;;;;;11.09;85.4;99036.666666667;;;;
2024/02/28 17:44:16;;;;;;;93.9;58.1;;;;;;;10.81;86.22;99056.666666667;;;;
2024/02/28 17:54:16;;;;;;;93.9;58.1;;;;;;;10.47;86.28;99056.666666667;;;;
2024/02/28 18:05:16;;;;;;;93.9;58.1;;;;;;;10.36;86.1;99066.666666667;;;;
2024/02/28 18:15:16;;;;;;;91.8;50.4;;;;;;;10.24;86.57;99066.666666667;;;;
2024/02/28 18:25:16;;;;;;;91.8;50.4;;;;;;;10.12;86.88;99065;;;;
2024/02/28 18:35:16;;;;;;;91.8;50.4;;;;;;;10.18;86.7;99071.666666667;;;;
2024/02/28 18:46:16;;;;;;;68.6;45.9;;;;;;;10.13;86.59;99080;;;;
2024/02/28 18:56:16;;;;;;;68.6;45.9;;;;;;;10.11;86.26;99086.666666667;;;;
2024/02/28 19:06:17;;;;;;;68.6;45.9;;;;;;;9.91;86.59;99093.333333333;;;;
2024/02/28 19:16:18;;;;;;;83.2;47.8;;;;;;;9.9;86.64;99101.666666667;;;;
2024/02/28 19:26:16;;;;;;;83.2;47.8;;;;;;;9.88;86.98;99111.666666667;;;;
2024/02/28 19:37:16;;;;;;;83.2;47.8;;;;;;;9.97;86.71;99111.666666667;;;;
2024/02/28 19:47:16;;;;;;;81.9;44.4;;;;;;;9.97;86.7;99118.333333333;;;;
2024/02/28 19:57:18;;;;;;;81.9;44.4;;;;;;;10;86.42;99120;;;;
2024/02/28 20:08:16;;;;;;;74.2;44.1;;;;;;;10;86.47;99126.666666667;;;;
2024/02/28 20:19:16;;;;;;;74.2;44.1;;;;;;;10.07;86.41;99130;;;;
2024/02/28 20:30:16;;;;;;;74.2;44.1;;;;;;;10.04;86.4;99135;;;;
2024/02/28 20:40:16;;;;;;;72.9;44.3;;;;;;;9.99;86.49;99148.333333333;;;;
2024/02/28 20:50:16;;;;;;;72.9;44.3;;;;;;;10.09;86.2;99158.333333333;;;;
2024/02/28 21:01:17;;;;;;;72.9;44.3;;;;;;;9.92;86.7;99156.666666667;;;;
2024/02/28 21:11:16;;;;;;;67.8;42.3;;;;;;;9.85;86.87;99160;;;;
2024/02/28 21:22:16;;;;;;;67.8;42.3;;;;;;;9.84;87.1;99161.666666667;;;;
2024/02/28 21:32:16;;;;;;;67.8;42.3;;;;;;;9.86;87.09;99166.666666667;;;;
2024/02/28 21:43:16;;;;;;;71.4;43.3;;;;;;;9.7;87.84;99168.333333333;;;;
2024/02/28 21:54:16;;;;;;;71.4;43.3;;;;;;;9.77;87.75;99171.666666667;;;;
2024/02/28 22:04:16;;;;;;;71.4;43.3;;;;;;;9.78;87.72;99175;;;;
2024/02/28 22:15:17;;;;;;;82.7;45.4;;;;;;;9.77;87.72;99176.666666667;;;;
2024/02/28 22:25:16;;;;;;;82.7;45.4;;;;;;;9.8;87.81;99178.333333333;;;;
2024/02/28 22:35:16;;;;;;;82.7;45.4;;;;;;;9.62;88.01;99183.333333333;;;;
2024/02/28 22:46:16;;;;;;;82.5;49.9;;;;;;;9.6;88.29;99191.666666667;;;;
2024/02/28 22:57:16;;;;;;;82.5;49.9;;;;;;;9.72;88.41;99191.666666667;;;;
2024/02/28 23:07:16;;;;;;;82.5;49.9;;;;;;;9.57;88.9;99193.333333333;;;;
2024/02/28 23:18:16;;;;;;;90.3;48.4;;;;;;;9.57;89.28;99188.333333333;;;;
2024/02/28 23:29:16;;;;;;;90.3;48.4;;;;;;;9.6;89.23;99195;;;;
2024/02/28 23:39:16;;;;;;;88.4;48.3;;;;;;;9.74;89.18;99195;;;;
2024/02/28 23:50:16;;;;;;;88.4;48.3;;;;;;;9.88;88.6;99193.333333333;;;;
